Time;durP1;ratioP1;P1;durP2;ratioP2;P2;SDS_P1;SDS_P2;PMS_P1;PMS_P2;Temp;Humidity;BMP_temperature;BMP_pressure;BME280_temperature;BME280_humidity;BME280_pressure;Samples;Min_cycle;Max_cycle;Signal;HPM_P1;HPM_P2
2022/07/18 00:00:36;;;;;;;;;;;18.70;99.90;;;;;;8375216;28;19925;-65
2022/07/18 00:04:38;;;;;;;;;;;18.70;99.90;;;;;;8398343;28;19920;-65
2022/07/18 00:08:40;;;;;;;;;;;18.60;99.90;;;;;;8357758;28;19920;-65
2022/07/18 00:12:42;;;;;;;;;;;18.60;99.90;;;;;;8374054;28;19920;-65
2022/07/18 00:16:43;;;;;;;;;;;18.50;99.90;;;;;;8370520;28;19928;-65
2022/07/18 00:20:45;;;;;;;;;;;18.50;99.90;;;;;;8369294;28;20015;-65
2022/07/18 00:24:46;;;;;;;;;;;18.40;99.90;;;;;;8385162;28;19924;-65
2022/07/18 00:28:48;;;;;;;;;;;18.40;99.90;;;;;;8359717;28;19924;-65
2022/07/18 00:32:50;;;;;;;;;;;18.30;99.90;;;;;;8364942;28;20031;-65
2022/07/18 00:36:51;;;;;;;;;;;18.30;99.90;;;;;;8369576;28;19921;-65
2022/07/18 00:40:53;;;;;;;;;;;18.20;99.90;;;;;;8372257;28;19924;-65
2022/07/18 00:44:55;;;;;;;;;;;18.20;99.90;;;;;;8373342;28;19928;-65
2022/07/18 00:48:56;;;;;;;;;;;18.10;99.90;;;;;;8374943;28;19924;-65
2022/07/18 00:52:58;;;;;;;;;;;18.10;99.90;;;;;;8375290;28;19928;-65
2022/07/18 00:57:00;;;;;;;;;;;18.10;99.90;;;;;;8376137;28;19935;-65
2022/07/18 01:05:22;;;;;;;;;;;18.00;99.90;;;;;;8366823;28;19928;-65
2022/07/18 01:09:26;;;;;;;;;;;17.90;99.90;;;;;;8378061;28;20316;-65
2022/07/18 01:13:27;;;;;;;;;;;17.90;99.90;;;;;;8368674;28;19970;-65
2022/07/18 01:17:29;;;;;;;;;;;17.90;99.90;;;;;;8373904;28;19967;-65
2022/07/18 01:21:36;;;;;;;;;;;17.80;99.90;;;;;;8366681;28;19925;-65
2022/07/18 01:25:38;;;;;;;;;;;17.70;99.90;;;;;;8379664;28;19928;-65
2022/07/18 01:29:39;;;;;;;;;;;17.70;99.90;;;;;;8373072;28;19935;-65
2022/07/18 01:33:41;;;;;;;;;;;17.70;99.90;;;;;;8380722;28;19924;-65
2022/07/18 01:37:43;;;;;;;;;;;17.60;99.90;;;;;;8371552;28;19963;-65
2022/07/18 01:41:44;;;;;;;;;;;17.60;99.90;;;;;;8379352;28;19925;-65
2022/07/18 01:45:46;;;;;;;;;;;17.50;99.90;;;;;;8371354;28;19924;-65
2022/07/18 01:49:48;;;;;;;;;;;17.40;99.90;;;;;;8361930;28;19985;-65
2022/07/18 01:53:54;;;;;;;;;;;17.40;99.90;;;;;;8348961;28;20022;-65
2022/07/18 01:57:55;;;;;;;;;;;17.30;99.90;;;;;;8374765;28;19924;-65
2022/07/18 02:01:57;;;;;;;;;;;17.20;99.90;;;;;;8378922;28;19951;-65
2022/07/18 02:05:59;;;;;;;;;;;17.20;99.90;;;;;;8379297;28;19925;-65
2022/07/18 02:10:01;;;;;;;;;;;17.20;99.90;;;;;;8366928;28;19928;-65
2022/07/18 02:14:04;;;;;;;;;;;17.10;99.90;;;;;;8386640;28;19935;-65
2022/07/18 02:18:05;;;;;;;;;;;17.10;99.90;;;;;;8363171;28;19929;-65
2022/07/18 02:22:07;;;;;;;;;;;17.00;99.90;;;;;;8364174;28;19932;-66
2022/07/18 02:26:09;;;;;;;;;;;17.00;99.90;;;;;;8324271;28;19929;-65
2022/07/18 02:30:11;;;;;;;;;;;16.90;99.90;;;;;;8314130;28;20409;-65
2022/07/18 02:34:14;;;;;;;;;;;16.90;99.90;;;;;;8329652;28;20340;-65
2022/07/18 02:38:15;;;;;;;;;;;16.80;99.90;;;;;;8323150;28;20292;-65
2022/07/18 02:42:17;;;;;;;;;;;16.80;99.90;;;;;;8319349;28;20318;-65
2022/07/18 02:46:18;;;;;;;;;;;16.70;99.90;;;;;;8324525;28;19928;-65
2022/07/18 02:50:20;;;;;;;;;;;16.70;99.90;;;;;;8317629;28;20573;-65
2022/07/18 02:54:23;;;;;;;;;;;16.70;99.90;;;;;;8320915;28;20023;-65
2022/07/18 02:58:24;;;;;;;;;;;16.60;99.90;;;;;;8324330;28;19936;-65
2022/07/18 03:02:26;;;;;;;;;;;16.60;99.90;;;;;;8325362;28;19968;-65
2022/07/18 03:06:28;;;;;;;;;;;16.60;99.90;;;;;;8330335;28;19960;-67
2022/07/18 03:10:30;;;;;;;;;;;16.50;99.90;;;;;;8326079;28;20383;-68
2022/07/18 03:14:31;;;;;;;;;;;16.50;99.90;;;;;;8326537;28;20012;-67
2022/07/18 03:18:33;;;;;;;;;;;16.40;99.90;;;;;;8323877;28;19929;-67
2022/07/18 03:22:34;;;;;;;;;;;16.40;99.90;;;;;;8328756;28;19972;-68
2022/07/18 03:26:36;;;;;;;;;;;16.30;99.90;;;;;;8333662;28;19928;-67
2022/07/18 03:30:38;;;;;;;;;;;16.30;99.90;;;;;;8323131;28;20789;-67
2022/07/18 03:34:40;;;;;;;;;;;16.30;99.90;;;;;;8323568;28;19940;-68
2022/07/18 03:38:42;;;;;;;;;;;16.30;99.90;;;;;;8322960;28;19933;-68
2022/07/18 03:42:44;;;;;;;;;;;16.20;99.90;;;;;;8330638;28;19933;-68
2022/07/18 03:46:46;;;;;;;;;;;16.20;99.90;;;;;;8340697;28;19929;-67
2022/07/18 03:50:47;;;;;;;;;;;16.20;99.90;;;;;;8339723;28;19931;-67
2022/07/18 03:54:49;;;;;;;;;;;16.10;99.90;;;;;;8358259;28;20599;-67
2022/07/18 03:58:51;;;;;;;;;;;16.10;99.90;;;;;;8377198;28;20328;-67
2022/07/18 04:02:53;;;;;;;;;;;16.10;99.90;;;;;;8374601;28;19936;-67
2022/07/18 04:06:58;;;;;;;;;;;16.10;99.90;;;;;;8374113;28;19932;-67
2022/07/18 04:11:00;;;;;;;;;;;16.10;99.90;;;;;;8374846;28;19925;-68
2022/07/18 04:15:03;;;;;;;;;;;16.10;99.90;;;;;;8380805;28;19951;-67
2022/07/18 04:19:05;;;;;;;;;;;16.10;99.90;;;;;;8364631;28;19925;-68
2022/07/18 04:23:08;;;;;;;;;;;16.10;99.90;;;;;;8364467;28;19933;-67
2022/07/18 04:27:09;;;;;;;;;;;16.10;99.90;;;;;;8377027;28;20420;-68
2022/07/18 04:31:11;;;;;;;;;;;16.10;99.90;;;;;;8379681;28;20384;-68
2022/07/18 04:35:13;;;;;;;;;;;16.20;99.90;;;;;;8380264;28;20318;-68
2022/07/18 04:39:16;;;;;;;;;;;16.20;99.90;;;;;;8376290;28;19924;-68
2022/07/18 04:43:18;;;;;;;;;;;16.40;99.90;;;;;;8350864;28;22618;-67
2022/07/18 04:47:19;;;;;;;;;;;16.50;99.90;;;;;;8377533;28;20008;-67
2022/07/18 04:51:24;;;;;;;;;;;16.70;99.90;;;;;;8364432;28;20379;-68
2022/07/18 04:55:26;;;;;;;;;;;16.80;99.90;;;;;;8357124;28;20380;-68
2022/07/18 04:59:27;;;;;;;;;;;16.90;99.90;;;;;;8403690;28;19924;-68
2022/07/18 05:03:32;;;;;;;;;;;17.00;99.90;;;;;;8370368;28;19979;-68
2022/07/18 05:07:34;;;;;;;;;;;17.20;99.90;;;;;;8377549;28;19932;-68
2022/07/18 05:11:36;;;;;;;;;;;17.30;99.90;;;;;;8371270;28;19932;-68
2022/07/18 05:15:37;;;;;;;;;;;17.40;99.90;;;;;;8372682;28;19924;-68
2022/07/18 05:19:39;;;;;;;;;;;17.50;99.90;;;;;;8375658;28;20375;-68
2022/07/18 05:23:41;;;;;;;;;;;17.60;99.90;;;;;;8381404;28;20398;-68
2022/07/18 05:27:42;;;;;;;;;;;17.70;99.90;;;;;;8369296;28;19936;-68
2022/07/18 05:31:44;;;;;;;;;;;17.90;99.90;;;;;;8378871;28;19928;-68
2022/07/18 05:35:46;;;;;;;;;;;18.00;99.90;;;;;;8371154;28;19925;-68
2022/07/18 05:39:48;;;;;;;;;;;18.10;99.90;;;;;;8379040;28;19924;-68
2022/07/18 05:43:49;;;;;;;;;;;18.20;99.90;;;;;;8387097;28;19955;-68
2022/07/18 05:47:52;;;;;;;;;;;18.30;99.90;;;;;;8382862;28;19931;-68
2022/07/18 05:51:53;;;;;;;;;;;18.40;99.90;;;;;;8361210;28;19936;-67
2022/07/18 05:55:55;;;;;;;;;;;18.50;99.90;;;;;;8359992;28;19929;-67
2022/07/18 05:59:56;;;;;;;;;;;18.60;99.90;;;;;;8349886;28;19928;-68
2022/07/18 06:03:58;;;;;;;;;;;18.70;99.90;;;;;;8353886;28;19939;-67
2022/07/18 06:08:00;;;;;;;;;;;18.80;99.90;;;;;;8366087;28;19933;-68
2022/07/18 06:12:02;;;;;;;;;;;19.00;99.90;;;;;;8349664;28;20232;-68
2022/07/18 06:16:04;;;;;;;;;;;19.10;99.90;;;;;;8355516;28;19925;-68
2022/07/18 06:20:07;;;;;;;;;;;19.20;99.90;;;;;;8339914;28;19972;-68
2022/07/18 06:24:09;;;;;;;;;;;19.30;99.90;;;;;;8359087;28;19928;-68
2022/07/18 06:28:11;;;;;;;;;;;19.40;99.90;;;;;;8360024;28;19925;-68
2022/07/18 06:32:12;;;;;;;;;;;19.50;99.90;;;;;;8352183;28;19932;-68
2022/07/18 06:36:14;;;;;;;;;;;19.70;99.90;;;;;;8352054;28;19928;-68
2022/07/18 06:40:16;;;;;;;;;;;19.80;99.90;;;;;;8354934;28;19925;-68
2022/07/18 06:44:17;;;;;;;;;;;19.80;99.90;;;;;;8354719;28;19925;-68
2022/07/18 06:48:19;;;;;;;;;;;19.90;99.90;;;;;;8356880;28;19932;-68
2022/07/18 06:52:21;;;;;;;;;;;20.00;99.90;;;;;;8353607;28;19929;-67
2022/07/18 06:56:22;;;;;;;;;;;20.10;99.90;;;;;;8355577;28;19924;-68
2022/07/18 07:00:24;;;;;;;;;;;20.20;99.90;;;;;;8367427;28;19925;-68
2022/07/18 07:04:26;;;;;;;;;;;20.40;99.90;;;;;;8352851;28;19924;-68
2022/07/18 07:08:27;;;;;;;;;;;20.50;99.90;;;;;;8349807;28;19928;-68
2022/07/18 07:12:29;;;;;;;;;;;20.60;99.90;;;;;;8349888;28;19924;-67
2022/07/18 07:16:31;;;;;;;;;;;20.70;99.90;;;;;;8354912;28;19928;-68
2022/07/18 07:20:32;;;;;;;;;;;20.90;99.90;;;;;;8346946;28;19946;-68
2022/07/18 07:24:34;;;;;;;;;;;21.00;99.90;;;;;;8350666;28;19928;-68
2022/07/18 07:28:35;;;;;;;;;;;21.10;99.90;;;;;;8349493;28;19929;-68
2022/07/18 07:32:39;;;;;;;6.47;2.35;;;21.20;99.90;;;;;;8349320;28;19994;-68
2022/07/18 07:36:40;;;;;;;5.80;2.45;;;21.30;99.90;;;;;;8334828;28;20057;-68
2022/07/18 07:40:42;;;;;;;5.72;1.92;;;21.50;99.90;;;;;;8349783;28;20681;-67
2022/07/18 07:44:44;;;;;;;6.10;2.40;;;21.70;99.90;;;;;;8333952;28;20060;-68
2022/07/18 07:48:47;;;;;;;4.72;2.20;;;21.80;99.90;;;;;;8350175;28;20040;-67
2022/07/18 07:52:49;;;;;;;6.35;2.30;;;21.90;99.90;;;;;;8348469;28;20056;-68
2022/07/18 07:56:51;;;;;;;4.28;1.77;;;22.00;99.90;;;;;;8346932;28;20056;-68
2022/07/18 08:00:52;;;;;;;4.10;1.90;;;22.10;99.90;;;;;;8345831;28;20079;-68
2022/07/18 08:04:54;;;;;;;;;;;22.20;99.90;;;;;;8353220;28;20281;-68
2022/07/18 08:08:56;;;;;;;5.05;2.20;;;22.40;99.90;;;;;;8353604;28;19925;-67
2022/07/18 08:13:00;;;;;;;;;;;22.50;99.90;;;;;;8351252;28;20040;-68
2022/07/18 08:17:01;;;;;;;;;;;22.60;99.90;;;;;;8351452;28;20308;-68
2022/07/18 08:21:03;;;;;;;;;;;22.70;99.90;;;;;;8364669;28;19978;-68
2022/07/18 08:25:05;;;;;;;5.95;2.05;;;22.80;99.90;;;;;;8353742;28;19924;-68
2022/07/18 08:29:07;;;;;;;4.97;2.20;;;22.80;99.90;;;;;;8344058;28;20049;-68
2022/07/18 08:33:09;;;;;;;5.70;2.75;;;22.90;99.90;;;;;;8352793;28;20049;-68
2022/07/18 08:37:11;;;;;;;;;;;23.00;99.90;;;;;;8366828;28;20099;-68
2022/07/18 08:41:13;;;;;;;;;;;23.00;99.90;;;;;;8350039;28;19921;-67
2022/07/18 08:45:15;;;;;;;;;;;23.10;99.90;;;;;;8349729;28;19920;-68
2022/07/18 08:49:17;;;;;;;;;;;23.20;99.90;;;;;;8348651;28;19924;-68
2022/07/18 08:53:19;;;;;;;;;;;23.20;99.90;;;;;;8349773;28;19943;-68
2022/07/18 08:57:21;;;;;;;;;;;23.30;99.90;;;;;;8331680;28;19921;-68
2022/07/18 09:01:23;;;;;;;;;;;23.40;99.90;;;;;;8349795;28;19924;-68
2022/07/18 09:05:25;;;;;;;;;;;23.50;99.90;;;;;;8347588;28;19967;-68
2022/07/18 09:09:32;;;;;;;;;;;23.60;99.90;;;;;;8351249;28;20295;-65
2022/07/18 09:13:34;;;;;;;;;;;23.70;99.90;;;;;;8349556;28;19920;-65
2022/07/18 09:17:36;;;;;;;;;;;23.80;99.90;;;;;;8350439;28;19946;-65
2022/07/18 09:21:38;;;;;;;;;;;23.90;99.90;;;;;;8363695;28;19932;-65
2022/07/18 09:25:40;;;;;;;;;;;24.00;99.90;;;;;;8347195;28;20386;-65
2022/07/18 09:29:42;;;;;;;;;;;24.00;99.90;;;;;;8350271;28;20360;-65
2022/07/18 09:33:51;;;;;;;;;;;24.00;99.90;;;;;;8349659;28;20360;-65
2022/07/18 09:37:57;;;;;;;;;;;24.00;99.90;;;;;;8349877;28;19921;-65
2022/07/18 09:42:15;;;;;;;;;;;24.00;99.90;;;;;;8363177;28;19924;-65
2022/07/18 09:46:17;;;;;;;;;;;24.10;99.90;;;;;;8350812;28;19928;-65
2022/07/18 09:50:24;;;;;;;;;;;24.20;99.90;;;;;;8346280;28;20003;-65
2022/07/18 09:54:34;;;;;;;;;;;24.30;99.90;;;;;;8346147;28;21481;-65
2022/07/18 09:58:36;;;;;;;;;;;24.40;99.90;;;;;;8347094;28;20288;-65
2022/07/18 10:02:38;;;;;;;;;;;24.50;99.90;;;;;;8341798;28;19935;-65
2022/07/18 10:06:42;;;;;;;;;;;24.50;99.90;;;;;;8348528;28;19920;-65
2022/07/18 10:10:44;;;;;;;;;;;24.60;99.90;;;;;;8349959;28;19925;-65
2022/07/18 10:14:46;;;;;;;;;;;24.60;99.90;;;;;;8351555;28;20281;-65
2022/07/18 10:18:48;;;;;;;;;;;24.70;99.90;;;;;;8353394;28;20363;-65
2022/07/18 10:22:50;;;;;;;;;;;24.80;99.90;;;;;;8344818;28;19921;-65
2022/07/18 10:27:18;;;;;;;;;;;24.90;99.90;;;;;;8354220;28;19935;-65
2022/07/18 10:31:21;;;;;;;;;;;25.00;99.90;;;;;;8351782;28;19935;-65
2022/07/18 10:35:42;;;;;;;;;;;25.20;99.90;;;;;;8350010;28;19936;-66
2022/07/18 10:39:47;;;;;;;;;;;25.40;99.90;;;;;;8346894;28;19929;-65
2022/07/18 10:43:48;;;;;;;;;;;25.50;99.90;;;;;;8348594;28;20556;-65
2022/07/18 10:47:50;;;;;;;;;;;25.60;99.90;;;;;;8353862;28;19925;-65
2022/07/18 10:51:52;;;;;;;;;;;25.70;99.90;;;;;;8348830;28;19935;-65
2022/07/18 10:55:54;;;;;;;;;;;25.80;99.90;;;;;;8353710;28;19927;-65
2022/07/18 11:00:15;;;;;;;;;;;25.90;99.90;;;;;;8350557;28;20390;-66
2022/07/18 11:04:24;;;;;;;;;;;25.90;99.90;;;;;;8346672;28;19929;-66
2022/07/18 11:08:33;;;;;;;;;;;26.00;99.90;;;;;;8344848;28;20378;-66
2022/07/18 11:12:34;;;;;;;;;;;26.10;99.90;;;;;;8348032;28;24071;-65
2022/07/18 11:16:36;;;;;;;4.10;1.63;;;26.20;99.90;;;;;;8353704;28;19925;-65
2022/07/18 11:20:40;;;;;;;3.50;1.50;;;26.20;99.90;;;;;;8336943;28;20221;-66
2022/07/18 11:24:43;;;;;;;4.00;1.40;;;26.30;99.90;;;;;;8350476;28;20412;-66
2022/07/18 11:28:46;;;;;;;4.50;1.70;;;26.30;99.90;;;;;;8347796;28;20084;-66
2022/07/18 11:32:49;;;;;;;4.30;1.75;;;26.40;99.90;;;;;;8351551;28;20425;-66
2022/07/18 11:36:50;;;;;;;4.40;1.83;;;26.50;99.90;;;;;;8346347;28;20044;-65
2022/07/18 11:40:52;;;;;;;4.55;1.65;;;26.60;99.90;;;;;;8346925;28;20053;-65
2022/07/18 11:44:58;;;;;;;3.22;1.52;;;26.70;99.90;;;;;;8352821;28;20060;-65
2022/07/18 11:49:04;;;;;;;3.45;1.60;;;26.80;99.90;;;;;;8346546;28;20052;-65
2022/07/18 11:53:06;;;;;;;3.70;1.73;;;26.80;99.90;;;;;;8343919;28;20060;-66
2022/07/18 11:57:08;;;;;;;4.13;1.70;;;26.90;99.90;;;;;;8342321;28;20061;-65
2022/07/18 12:01:10;;;;;;;4.18;1.55;;;26.90;99.90;;;;;;8346861;28;20437;-65
2022/07/18 12:05:12;;;;;;;4.20;2.00;;;27.00;99.90;;;;;;8350951;28;20064;-65
2022/07/18 12:09:26;;;;;;;4.95;2.15;;;27.20;99.90;;;;;;8343667;28;20083;-66
2022/07/18 12:13:49;;;;;;;3.45;1.83;;;27.20;99.90;;;;;;8347693;28;20511;-65
2022/07/18 12:17:51;;;;;;;6.10;2.10;;;27.30;99.90;;;;;;8336355;28;20041;-65
2022/07/18 12:22:04;;;;;;;3.88;1.80;;;27.40;99.90;;;;;;8338846;28;20393;-65
2022/07/18 12:26:06;;;;;;;3.63;1.50;;;27.40;99.90;;;;;;8350862;28;20048;-66
2022/07/18 12:30:20;;;;;;;4.47;1.80;;;27.50;99.90;;;;;;8324047;28;20048;-66
2022/07/18 12:34:22;;;;;;;4.47;1.60;;;27.60;99.90;;;;;;8348018;28;20431;-66
2022/07/18 12:38:24;;;;;;;5.18;1.60;;;27.60;99.90;;;;;;8346275;28;20052;-66
2022/07/18 12:42:33;;;;;;;3.90;1.50;;;27.70;99.90;;;;;;8346097;28;20123;-66
2022/07/18 12:46:34;;;;;;;3.60;1.73;;;27.80;99.90;;;;;;8351078;28;20071;-66
2022/07/18 12:50:38;;;;;;;3.30;1.35;;;27.90;99.90;;;;;;8349714;28;20095;-66
2022/07/18 12:54:40;;;;;;;4.55;1.65;;;27.90;99.90;;;;;;8350339;28;20103;-66
2022/07/18 12:58:41;;;;;;;3.53;1.60;;;28.00;99.90;;;;;;8353399;28;20055;-66
2022/07/18 13:02:44;;;;;;;5.03;1.60;;;28.10;99.90;;;;;;8350381;28;20088;-66
2022/07/18 13:06:46;;;;;;;3.90;1.80;;;28.20;99.90;;;;;;8345031;28;20063;-66
2022/07/18 13:10:47;;;;;;;4.88;1.90;;;28.20;99.90;;;;;;8343494;28;20408;-66
2022/07/18 13:14:49;;;;;;;4.65;1.70;;;28.30;99.90;;;;;;8350349;28;20049;-66
2022/07/18 13:18:51;;;;;;;3.45;1.70;;;28.30;99.90;;;;;;8354318;28;20515;-66
2022/07/18 13:22:53;;;;;;;4.22;1.73;;;28.40;99.90;;;;;;8351255;28;20055;-66
2022/07/18 13:26:55;;;;;;;4.22;1.90;;;28.40;99.90;;;;;;8350376;28;20115;-66
2022/07/18 13:30:57;;;;;;;3.75;1.65;;;28.50;99.90;;;;;;8347166;28;20045;-66
2022/07/18 13:34:59;;;;;;;3.55;1.50;;;28.60;99.90;;;;;;8346034;28;20061;-66
2022/07/18 13:39:01;;;;;;;3.58;1.75;;;28.70;99.90;;;;;;8350212;28;20056;-66
2022/07/18 13:43:02;;;;;;;;;;;28.80;99.90;;;;;;8349204;28;20523;-66
2022/07/18 13:47:04;;;;;;;;;;;28.80;99.90;;;;;;8345478;28;20299;-66
2022/07/18 13:51:06;;;;;;;;;;;28.90;99.20;;;;;;8345502;28;20233;-66
2022/07/18 13:55:08;;;;;;;;;;;29.00;99.20;;;;;;8357142;28;19931;-66
2022/07/18 13:59:10;;;;;;;;;;;29.00;99.30;;;;;;8353425;28;20010;-66
2022/07/18 14:03:12;;;;;;;;;;;29.00;99.00;;;;;;8355747;28;19928;-66
2022/07/18 14:07:17;;;;;;;;;;;29.10;98.60;;;;;;8349157;28;25068;-66
2022/07/18 14:11:19;;;;;;;;;;;29.10;98.80;;;;;;8353482;28;19929;-66
2022/07/18 14:15:20;;;;;;;;;;;29.20;98.80;;;;;;8355487;28;19983;-66
2022/07/18 14:19:22;;;;;;;;;;;29.20;98.70;;;;;;8353618;28;20296;-66
2022/07/18 14:23:23;;;;;;;;;;;29.30;96.60;;;;;;8354378;28;19985;-67
2022/07/18 14:27:25;;;;;;;;;;;29.40;97.40;;;;;;8352562;28;20418;-66
2022/07/18 14:31:27;;;;;;;;;;;29.50;96.90;;;;;;8357143;28;20398;-66
2022/07/18 14:35:29;;;;;;;;;;;29.70;98.00;;;;;;8353868;28;19931;-66
2022/07/18 14:39:30;;;;;;;;;;;29.80;97.70;;;;;;8351501;28;19940;-66
2022/07/18 14:43:32;;;;;;;;;;;29.90;97.50;;;;;;8354940;28;19939;-66
2022/07/18 14:47:35;;;;;;;;;;;30.10;97.60;;;;;;8346771;28;19925;-66
2022/07/18 14:51:37;;;;;;;;;;;30.20;97.50;;;;;;8351304;28;19925;-66
2022/07/18 14:55:38;;;;;;;;;;;30.30;97.00;;;;;;8354216;28;19928;-66
2022/07/18 14:59:40;;;;;;;;;;;30.50;96.90;;;;;;8350610;28;19928;-66
2022/07/18 15:03:42;;;;;;;;;;;30.60;97.10;;;;;;8353459;28;20000;-66
2022/07/18 15:07:56;;;;;;;;;;;30.70;97.10;;;;;;8350491;28;19921;-66
2022/07/18 15:11:58;;;;;;;;;;;30.60;96.60;;;;;;8348519;28;19932;-66
2022/07/18 15:15:59;;;;;;;;;;;30.60;96.20;;;;;;8354323;28;19928;-66
2022/07/18 15:20:01;;;;;;;;;;;30.50;96.10;;;;;;8333310;28;19925;-66
2022/07/18 15:24:03;;;;;;;;;;;30.50;95.80;;;;;;8353254;28;19929;-66
2022/07/18 15:28:04;;;;;;;;;;;30.50;95.50;;;;;;8354301;28;20399;-66
2022/07/18 15:32:07;;;;;;;;;;;30.60;95.40;;;;;;8349374;28;19920;-66
2022/07/18 15:36:10;;;;;;;;;;;30.60;95.00;;;;;;8355485;28;19924;-66
2022/07/18 15:40:11;;;;;;;;;;;30.60;95.20;;;;;;8351741;28;19927;-66
2022/07/18 15:44:13;;;;;;;;;;;30.70;95.30;;;;;;8357777;28;19931;-66
2022/07/18 15:48:15;;;;;;;;;;;30.80;95.00;;;;;;8344226;28;19933;-66
2022/07/18 15:52:16;;;;;;;;;;;30.90;94.70;;;;;;8351156;28;19924;-66
2022/07/18 15:56:18;;;;;;;;;;;31.00;94.50;;;;;;8354848;28;19920;-66
2022/07/18 16:00:20;;;;;;;;;;;31.20;94.00;;;;;;8347130;28;19927;-66
2022/07/18 16:04:22;;;;;;;;;;;31.50;94.30;;;;;;8348254;28;24089;-66
2022/07/18 16:08:24;;;;;;;;;;;31.90;94.40;;;;;;8348214;28;19974;-66
2022/07/18 16:12:26;;;;;;;;;;;32.40;95.00;;;;;;8348742;28;21036;-66
2022/07/18 16:16:27;;;;;;;;;;;32.90;95.40;;;;;;8353129;28;19932;-66
2022/07/18 16:20:29;;;;;;;;;;;33.40;95.90;;;;;;8341716;28;19929;-66
2022/07/18 16:24:31;;;;;;;;;;;33.60;94.90;;;;;;8344783;28;19947;-66
2022/07/18 16:28:33;;;;;;;;;;;33.90;95.60;;;;;;8351502;28;19928;-66
2022/07/18 16:32:34;;;;;;;;;;;34.00;96.00;;;;;;8346626;28;19928;-66
2022/07/18 16:36:36;;;;;;;;;;;34.20;96.10;;;;;;8353108;28;19920;-66
2022/07/18 16:40:38;;;;;;;;;;;34.40;96.30;;;;;;8344349;28;19931;-66
2022/07/18 16:44:40;;;;;;;;;;;34.60;96.40;;;;;;8349866;28;19921;-66
2022/07/18 16:48:42;;;;;;;;;;;34.80;95.90;;;;;;8351396;28;19927;-66
2022/07/18 16:52:44;;;;;;;;;;;34.80;95.90;;;;;;8351069;28;19924;-66
2022/07/18 16:56:46;;;;;;;;;;;34.90;95.70;;;;;;8341274;28;19920;-66
2022/07/18 17:00:47;;;;;;;;;;;34.90;95.40;;;;;;8348375;28;19921;-66
2022/07/18 17:04:49;;;;;;;;;;;34.90;95.50;;;;;;8353947;28;19936;-66
2022/07/18 17:08:51;;;;;;;;;;;34.90;95.20;;;;;;8350141;28;20312;-66
2022/07/18 17:12:53;;;;;;;;;;;34.90;94.90;;;;;;8365309;28;25066;-66
2022/07/18 17:16:55;;;;;;;;;;;34.80;94.50;;;;;;8349083;28;19948;-66
2022/07/18 17:20:58;;;;;;;;;;;34.70;94.20;;;;;;8347909;28;19924;-66
2022/07/18 17:25:01;;;;;;;;;;;34.40;93.80;;;;;;8349625;28;19921;-66
2022/07/18 17:29:03;;;;;;;;;;;34.20;93.30;;;;;;8355443;28;19931;-66
2022/07/18 17:33:04;;;;;;;;;;;33.90;92.70;;;;;;8350530;28;19925;-66
2022/07/18 17:37:26;;;;;;;;;;;33.60;92.30;;;;;;8351785;28;19968;-66
2022/07/18 17:41:28;;;;;;;;;;;33.30;92.10;;;;;;8357758;28;21245;-66
2022/07/18 17:45:30;;;;;;;;;;;33.10;92.20;;;;;;8354645;28;20801;-66
2022/07/18 17:49:32;;;;;;;;;;;32.90;92.20;;;;;;8359782;28;20251;-66
2022/07/18 17:53:34;;;;;;;;;;;32.70;92.20;;;;;;8357939;28;19932;-66
2022/07/18 17:57:35;;;;;;;;;;;32.50;92.20;;;;;;8357877;28;19979;-66
2022/07/18 18:01:37;;;;;;;;;;;32.30;92.30;;;;;;8369187;28;19943;-66
2022/07/18 18:05:40;;;;;;;;;;;32.20;92.40;;;;;;8357822;28;19928;-66
2022/07/18 18:09:41;;;;;;;;;;;32.00;92.70;;;;;;8356261;28;19932;-66
2022/07/18 18:13:43;;;;;;;;;;;31.90;93.10;;;;;;8356311;28;19928;-66
2022/07/18 18:17:45;;;;;;;;;;;31.80;93.20;;;;;;8354106;28;20320;-66
2022/07/18 18:21:46;;;;;;;;;;;31.60;93.20;;;;;;8364476;28;19924;-66
2022/07/18 18:25:49;;;;;;;;;;;31.40;93.30;;;;;;8353073;28;19931;-66
2022/07/18 18:29:50;;;;;;;;;;;31.30;93.50;;;;;;8346307;28;20379;-66
2022/07/18 18:33:52;;;;;;;;;;;31.10;93.60;;;;;;8357671;28;19925;-66
2022/07/18 18:37:54;;;;;;;;;;;31.00;93.40;;;;;;8346137;28;20449;-66
2022/07/18 18:41:56;;;;;;;;;;;30.80;93.30;;;;;;8355296;28;19928;-66
2022/07/18 18:45:58;;;;;;;;;;;30.70;93.30;;;;;;8345530;28;20590;-66
2022/07/18 18:50:00;;;;;;;;;;;30.50;93.30;;;;;;8367386;28;19942;-66
2022/07/18 18:54:01;;;;;;;;;;;30.30;93.30;;;;;;8358221;28;19925;-66
2022/07/18 18:58:03;;;;;;;3.97;1.90;;;30.20;93.30;;;;;;8343274;28;25148;-66
2022/07/18 19:02:05;;;;;;;5.55;1.90;;;30.00;93.30;;;;;;8332569;28;20045;-66
2022/07/18 19:06:08;;;;;;;3.90;1.83;;;29.80;93.40;;;;;;8347253;28;20055;-66
2022/07/18 19:10:10;;;;;;;;;;;29.60;93.50;;;;;;8347459;28;20053;-66
2022/07/18 19:14:11;;;;;;;;;;;29.50;93.50;;;;;;8341611;28;19928;-66
2022/07/18 19:18:13;;;;;;;;;;;29.30;93.60;;;;;;8343041;28;19929;-66
2022/07/18 19:22:15;;;;;;;;;;;29.20;93.60;;;;;;8347982;28;19920;-66
2022/07/18 19:26:17;;;;;;;;;;;29.00;93.60;;;;;;8340782;28;19924;-66
2022/07/18 19:30:18;;;;;;;;;;;28.90;93.70;;;;;;8353893;28;19928;-66
2022/07/18 19:34:20;;;;;;;;;;;28.80;93.80;;;;;;8351883;28;19924;-66
2022/07/18 19:38:21;;;;;;;;;;;28.60;93.80;;;;;;8338645;28;19924;-66
2022/07/18 19:42:23;;;;;;;;;;;28.50;93.90;;;;;;8337466;28;19925;-66
2022/07/18 19:46:25;;;;;;;;;;;28.40;93.90;;;;;;8356272;28;19933;-66
2022/07/18 19:50:26;;;;;;;;;;;28.20;94.00;;;;;;8327717;28;19924;-66
2022/07/18 19:54:28;;;;;;;;;;;28.10;94.10;;;;;;8341519;28;20279;-66
2022/07/18 19:58:30;;;;;;;;;;;27.90;94.10;;;;;;8341216;28;19993;-66
2022/07/18 20:02:31;;;;;;;;;;;27.80;94.20;;;;;;8347174;28;19931;-66
2022/07/18 20:06:33;;;;;;;;;;;27.70;94.20;;;;;;8369703;28;20345;-66
2022/07/18 20:10:35;;;;;;;;;;;27.60;94.20;;;;;;8337866;28;19928;-66
2022/07/18 20:14:36;;;;;;;;;;;27.40;94.30;;;;;;8341924;28;19936;-66
2022/07/18 20:18:38;;;;;;;;;;;27.30;94.30;;;;;;8351181;28;25070;-66
2022/07/18 20:22:44;;;;;;;;;;;27.20;94.30;;;;;;8344096;28;20010;-66
2022/07/18 20:26:45;;;;;;;;;;;27.10;94.40;;;;;;8332777;28;19932;-67
2022/07/18 20:30:47;;;;;;;;;;;27.00;94.40;;;;;;8350421;28;19921;-66
2022/07/18 20:34:48;;;;;;;;;;;26.90;94.50;;;;;;8343797;28;19924;-66
2022/07/18 20:38:50;;;;;;;;;;;26.80;94.50;;;;;;8354161;28;19947;-66
2022/07/18 20:42:52;;;;;;;;;;;26.70;94.50;;;;;;8353222;28;19921;-66
2022/07/18 20:46:53;;;;;;;;;;;26.60;94.50;;;;;;8347687;28;19924;-66
2022/07/18 20:50:55;;;;;;;;;;;26.50;94.60;;;;;;8345161;28;19939;-66
2022/07/18 20:54:57;;;;;;;;;;;26.40;94.60;;;;;;8347563;28;19936;-66
2022/07/18 20:59:07;;;;;;;;;;;26.30;94.70;;;;;;8346970;28;20368;-66
2022/07/18 21:03:08;;;;;;;;;;;26.20;94.80;;;;;;8344083;28;20379;-66
2022/07/18 21:07:13;;;;;;;;;;;26.10;94.90;;;;;;8364285;28;20311;-66
2022/07/18 21:11:14;;;;;;;;;;;26.10;95.00;;;;;;8362545;28;25067;-66
2022/07/18 21:15:16;;;;;;;;;;;26.00;95.00;;;;;;8382136;28;19925;-66
2022/07/18 21:19:18;;;;;;;;;;;25.90;95.10;;;;;;8359225;28;20010;-66
2022/07/18 21:23:19;;;;;;;;;;;25.80;95.20;;;;;;8353794;28;19936;-66
2022/07/18 21:27:21;;;;;;;;;;;25.80;95.20;;;;;;8347485;28;19924;-66
2022/07/18 21:31:23;;;;;;;;;;;25.60;95.20;;;;;;8330371;28;19921;-66
2022/07/18 21:35:24;;;;;;;;;;;25.60;95.30;;;;;;8318893;28;19932;-66
2022/07/18 21:39:26;;;;;;;;;;;25.50;95.50;;;;;;8326351;28;19950;-66
2022/07/18 21:43:27;;;;;;;;;;;25.40;95.50;;;;;;8365076;28;19920;-66
2022/07/18 21:47:29;;;;;;;;;;;25.30;95.60;;;;;;8373078;28;19924;-66
2022/07/18 21:51:31;;;;;;;;;;;25.30;95.70;;;;;;8361900;28;19948;-66
2022/07/18 21:55:33;;;;;;;;;;;25.20;95.70;;;;;;8373918;28;20395;-66
2022/07/18 21:59:34;;;;;;;;;;;25.10;95.80;;;;;;8359263;28;19974;-66
2022/07/18 22:03:36;;;;;;;;;;;25.10;95.90;;;;;;8357849;28;19940;-66
2022/07/18 22:07:38;;;;;;;;;;;25.00;95.90;;;;;;8362221;28;20253;-66
2022/07/18 22:11:45;;;;;;;;;;;24.90;96.00;;;;;;8372873;28;19929;-66
2022/07/18 22:15:47;;;;;;;;;;;24.80;96.20;;;;;;8369807;28;19924;-66
2022/07/18 22:19:48;;;;;;;;;;;24.80;96.00;;;;;;8370681;28;19985;-66
2022/07/18 22:23:50;;;;;;;;;;;24.60;96.00;;;;;;8361121;28;19920;-66
2022/07/18 22:27:52;;;;;;;;;;;24.50;96.10;;;;;;8341385;28;19924;-66
2022/07/18 22:31:53;;;;;;;;;;;24.50;96.10;;;;;;8336410;28;19928;-66
2022/07/18 22:35:55;;;;;;;;;;;24.40;96.10;;;;;;8342343;28;19984;-66
2022/07/18 22:39:57;;;;;;;;;;;24.30;96.20;;;;;;8353858;28;19932;-66
2022/07/18 22:43:58;;;;;;;;;;;24.20;96.20;;;;;;8376569;28;19920;-66
2022/07/18 22:48:00;;;;;;;;;;;24.20;96.20;;;;;;8362581;28;19928;-66
2022/07/18 22:52:02;;;;;;;;;;;24.10;96.20;;;;;;8358041;28;19929;-66
2022/07/18 22:56:03;;;;;;;;;;;24.00;96.20;;;;;;8367807;28;19920;-66
2022/07/18 23:00:06;;;;;;;;;;;24.00;96.30;;;;;;8364975;28;19929;-66
2022/07/18 23:04:08;;;;;;;;;;;23.90;96.50;;;;;;8363110;28;20368;-66
2022/07/18 23:08:11;;;;;;;;;;;23.80;96.30;;;;;;8382222;28;20158;-66